Inman, KS

2:49 AM CDT on May 26, 2015 (GMT -0500)
Inman | | Change Station
CLOSE
Current Station
Personal Weather Station
Location: Inman, KS
Elevation: 1526 ft
Nearby Weather Stations

Elev 1526 ft 38.23 °N, 97.77 °W | Updated 3 minutes ago

Mostly Cloudy
Mostly Cloudy
58.7 °F
Feels Like 58.7 °F
N
3.0
Wind Variable Wind from SSE
Gusts 4.0 mph

Today
High -- | Low -- °F
--% Chance of Precip.
Yesterday
High -- | Low -- °F
Precip. -- in
6:12 AM 8:44 PM
First Quarter, 56% visible
Pressure 29.78 in
Visibility 7.0 miles
Clouds Few 6000 ft
Overcast 8500 ft
Dew Point 57 °F
Humidity 94%
Rainfall 0.04 in
Snow Depth Not available.
UV 0 out of 12
Pollen 9.50 out of 12
Air Quality Not available.
Flu Activity No Activity
METAR KHUT 260652Z AUTO 24010KT 7SM RA FEW060 OVC085 17/13 A2984 RMK AO2 PK WND 32026/0607 WSHFT 0612 RAB17 SLP084 P0014 T01670128 $

More Conditions Fewer Conditions

Pressure 29.78 in
Visibility 7.0 miles
Clouds Few 6000 ft
Overcast 8500 ft
Dew Point 57 °F
Humidity 94%
Rainfall 0.04 in
Snow Depth Not available.
UV 0 out of 12
Pollen 9.50 out of 12
Air Quality Not available.
Flu Activity No Activity
METAR KHUT 260652Z AUTO 24010KT 7SM RA FEW060 OVC085 17/13 A2984 RMK AO2 PK WND 32026/0607 WSHFT 0612 RAB17 SLP084 P0014 T01670128 $

More Conditions Fewer Conditions

10-Day Weather Forecast

Almanac

Astronomy

May. 26, 2015 Rise Set
Actual Time
Civil Twilight
Nautical Twilight
Astronomical Twilight
Moon
Length of Visible Light
Length of Day
Tomorrow will be .
, % of the Moon is Illuminated

Today's Extremes

State Highs State Lows

Community

WunderPhotos

Upload Photos

1,824,302 photos uploaded!

WunderBlogs® & News

Nearby

Air Quality

  Air Quality AQ Index Pollutant
Not available.

Snow Depth

Station Depth Elevation

Earthquake Activity

City Distance Mag. Time & Date
Minimum magnitude displayed is 2.5.

Coastal Water Temperatures

Place Temperature

Stations

Nearby Weather Stations

Station Location Temp. Windchill Dew Point Humidity Wind Precip. Elev Updated Type